Oakman, Alabama
Current Conditions -  °F | °C
As of 5:55 PM on Sunday 23 Nov 2014 (Local Time) from KJFX Reporting Station
Broken Clouds Broken Clouds  
Wind Chill: 64°   Ceiling: 4100
Heat Index: 64°   Visibility: 10mi
Dew Point: 61°   Wind: 6mph
Humidity: 88%   Direction: 190°S
Pressure: 29.56"   Gusts: NA
Location:  33.71°N, 87.39°W
Report Text: KJFX 232355Z AUTO 19005KT 10SM BKN041 18/16 A2956 RMK A02 LTG DSNT SE P-128
Loading
Personal Weather Stations






























Interactive Weather Map New forecast layout! Learn more

10-Day Weather Forecast

Advertisements
Track Severe Weather on mobile